sensor_id;sensor_type;location;lat;lon;timestamp;pressure;altitude;pressure_sealevel;temperature;humidity
79129;BME280;68529;43.286;23.360;2023-10-13T00:00:40;99562.16;;;14.46;57.82
79129;BME280;68529;43.286;23.360;2023-10-13T00:03:07;99564.91;;;14.43;57.92
79129;BME280;68529;43.286;23.360;2023-10-13T00:05:40;99567.44;;;14.46;57.81
79129;BME280;68529;43.286;23.360;2023-10-13T00:08:07;99574.59;;;14.44;57.90
79129;BME280;68529;43.286;23.360;2023-10-13T00:10:33;99571.16;;;14.42;57.54
79129;BME280;68529;43.286;23.360;2023-10-13T00:12:59;99579.28;;;14.38;57.78
79129;BME280;68529;43.286;23.360;2023-10-13T00:15:47;99572.41;;;14.34;57.78
79129;BME280;68529;43.286;23.360;2023-10-13T00:18:21;99577.81;;;14.31;58.14
79129;BME280;68529;43.286;23.360;2023-10-13T00:20:47;99581.25;;;14.33;57.92
79129;BME280;68529;43.286;23.360;2023-10-13T00:23:16;99576.78;;;14.35;57.93
79129;BME280;68529;43.286;23.360;2023-10-13T00:25:52;99568.88;;;14.35;58.02
79129;BME280;68529;43.286;23.360;2023-10-13T00:28:28;99577.63;;;14.35;58.00
79129;BME280;68529;43.286;23.360;2023-10-13T00:31:01;99583.63;;;14.39;58.11
79129;BME280;68529;43.286;23.360;2023-10-13T00:33:36;99579.28;;;14.38;58.03
79129;BME280;68529;43.286;23.360;2023-10-13T00:36:03;99584.78;;;14.33;58.14
79129;BME280;68529;43.286;23.360;2023-10-13T00:38:30;99586.72;;;14.28;57.97
79129;BME280;68529;43.286;23.360;2023-10-13T00:40:55;99588.59;;;14.26;58.16
79129;BME280;68529;43.286;23.360;2023-10-13T00:43:22;99590.50;;;14.23;58.23
79129;BME280;68529;43.286;23.360;2023-10-13T00:45:50;99589.72;;;14.21;58.29
79129;BME280;68529;43.286;23.360;2023-10-13T00:50:55;99590.63;;;14.20;58.09
79129;BME280;68529;43.286;23.360;2023-10-13T00:53:23;99593.53;;;14.14;58.38
79129;BME280;68529;43.286;23.360;2023-10-13T00:55:50;99590.16;;;14.10;58.49
79129;BME280;68529;43.286;23.360;2023-10-13T00:58:16;99585.88;;;14.08;58.66
79129;BME280;68529;43.286;23.360;2023-10-13T01:00:48;99589.31;;;14.10;58.32
79129;BME280;68529;43.286;23.360;2023-10-13T01:03:13;99586.81;;;14.07;58.47
79129;BME280;68529;43.286;23.360;2023-10-13T01:05:40;99576.50;;;14.00;58.47
79129;BME280;68529;43.286;23.360;2023-10-13T01:08:07;99582.81;;;13.96;58.64
79129;BME280;68529;43.286;23.360;2023-10-13T01:10:36;99580.41;;;13.92;58.51
79129;BME280;68529;43.286;23.360;2023-10-13T01:13:02;99580.66;;;13.86;58.53
79129;BME280;68529;43.286;23.360;2023-10-13T01:15:29;99576.41;;;13.82;58.63
79129;BME280;68529;43.286;23.360;2023-10-13T01:18:10;99573.19;;;13.75;58.78
79129;BME280;68529;43.286;23.360;2023-10-13T01:20:38;99575.03;;;13.73;58.91
79129;BME280;68529;43.286;23.360;2023-10-13T01:23:13;99574.84;;;13.78;58.79
79129;BME280;68529;43.286;23.360;2023-10-13T01:25:45;99571.53;;;13.73;58.81
79129;BME280;68529;43.286;23.360;2023-10-13T01:28:11;99571.59;;;13.71;58.78
79129;BME280;68529;43.286;23.360;2023-10-13T01:30:45;99573.56;;;13.66;58.75
79129;BME280;68529;43.286;23.360;2023-10-13T01:33:15;99569.16;;;13.67;58.80
79129;BME280;68529;43.286;23.360;2023-10-13T01:35:41;99563.91;;;13.65;58.72
79129;BME280;68529;43.286;23.360;2023-10-13T01:38:15;99576.41;;;13.62;58.97
79129;BME280;68529;43.286;23.360;2023-10-13T01:40:41;99578.22;;;13.60;58.88
79129;BME280;68529;43.286;23.360;2023-10-13T01:43:08;99573.94;;;13.57;58.86
79129;BME280;68529;43.286;23.360;2023-10-13T01:45:37;99575.78;;;13.55;59.01
79129;BME280;68529;43.286;23.360;2023-10-13T01:48:11;99582.78;;;13.56;58.76
79129;BME280;68529;43.286;23.360;2023-10-13T01:50:40;99583.91;;;13.51;58.79
79129;BME280;68529;43.286;23.360;2023-10-13T01:53:07;99593.84;;;13.44;58.89
79129;BME280;68529;43.286;23.360;2023-10-13T01:55:39;99586.03;;;13.41;58.87
79129;BME280;68529;43.286;23.360;2023-10-13T01:58:12;99593.41;;;13.33;58.94
79129;BME280;68529;43.286;23.360;2023-10-13T02:00:45;99590.16;;;13.26;59.33
79129;BME280;68529;43.286;23.360;2023-10-13T02:03:12;99590.16;;;13.26;59.26
79129;BME280;68529;43.286;23.360;2023-10-13T02:05:45;99597.78;;;13.34;59.22
79129;BME280;68529;43.286;23.360;2023-10-13T02:08:18;99595.72;;;13.40;58.96
79129;BME280;68529;43.286;23.360;2023-10-13T02:10:55;99600.03;;;13.43;59.04
79129;BME280;68529;43.286;23.360;2023-10-13T02:13:22;99590.09;;;13.50;58.68
79129;BME280;68529;43.286;23.360;2023-10-13T02:15:49;99593.59;;;13.50;58.94
79129;BME280;68529;43.286;23.360;2023-10-13T02:18:18;99600.59;;;13.51;58.78
79129;BME280;68529;43.286;23.360;2023-10-13T02:20:56;99599.25;;;13.41;58.81
79129;BME280;68529;43.286;23.360;2023-10-13T02:23:25;99599.31;;;13.39;58.96
79129;BME280;68529;43.286;23.360;2023-10-13T02:25:54;99589.78;;;13.35;58.92
79129;BME280;68529;43.286;23.360;2023-10-13T02:28:35;99588.00;;;13.36;58.81
79129;BME280;68529;43.286;23.360;2023-10-13T02:31:02;99588.00;;;13.36;58.91
79129;BME280;68529;43.286;23.360;2023-10-13T02:33:29;99585.84;;;13.24;59.20
79129;BME280;68529;43.286;23.360;2023-10-13T02:35:59;99586.97;;;13.18;59.24
79129;BME280;68529;43.286;23.360;2023-10-13T02:38:28;99583.28;;;13.22;59.24
79129;BME280;68529;43.286;23.360;2023-10-13T02:41:15;99589.13;;;13.30;58.89
79129;BME280;68529;43.286;23.360;2023-10-13T02:44:01;99593.41;;;13.33;58.78
79129;BME280;68529;43.286;23.360;2023-10-13T02:46:26;99589.16;;;13.29;59.07
79129;BME280;68529;43.286;23.360;2023-10-13T02:48:54;99592.06;;;13.23;59.30
79129;BME280;68529;43.286;23.360;2023-10-13T02:51:22;99585.16;;;13.20;59.16
79129;BME280;68529;43.286;23.360;2023-10-13T02:53:56;99583.06;;;13.28;59.26
79129;BME280;68529;43.286;23.360;2023-10-13T02:56:28;99587.34;;;13.31;59.44
79129;BME280;68529;43.286;23.360;2023-10-13T02:58:54;99584.63;;;13.32;59.36
79129;BME280;68529;43.286;23.360;2023-10-13T03:01:23;99587.09;;;13.37;59.41
79129;BME280;68529;43.286;23.360;2023-10-13T03:03:55;99583.53;;;13.38;59.27
79129;BME280;68529;43.286;23.360;2023-10-13T03:06:22;99573.16;;;13.33;59.30
79129;BME280;68529;43.286;23.360;2023-10-13T03:08:51;99567.22;;;13.28;59.70
79129;BME280;68529;43.286;23.360;2023-10-13T03:11:17;99568.06;;;13.29;59.87
79129;BME280;68529;43.286;23.360;2023-10-13T03:13:47;99564.28;;;13.36;59.84
79129;BME280;68529;43.286;23.360;2023-10-13T03:16:16;99553.34;;;13.45;59.71
79129;BME280;68529;43.286;23.360;2023-10-13T03:18:48;99553.94;;;13.52;59.48
79129;BME280;68529;43.286;23.360;2023-10-13T03:21:21;99544.06;;;13.57;59.38
79129;BME280;68529;43.286;23.360;2023-10-13T03:23:57;99545.97;;;13.53;59.41
79129;BME280;68529;43.286;23.360;2023-10-13T03:26:29;99539.56;;;13.59;59.26
79129;BME280;68529;43.286;23.360;2023-10-13T03:29:00;99538.84;;;13.55;59.25
79129;BME280;68529;43.286;23.360;2023-10-13T03:31:27;99544.25;;;13.52;59.18
79129;BME280;68529;43.286;23.360;2023-10-13T03:33:54;99542.47;;;13.53;59.20
79129;BME280;68529;43.286;23.360;2023-10-13T03:36:25;99546.88;;;13.52;59.08
79129;BME280;68529;43.286;23.360;2023-10-13T03:39:09;99552.25;;;13.51;59.10
79129;BME280;68529;43.286;23.360;2023-10-13T03:41:36;99545.19;;;13.51;59.06
79129;BME280;68529;43.286;23.360;2023-10-13T03:44:03;99553.16;;;13.50;59.19
79129;BME280;68529;43.286;23.360;2023-10-13T03:46:42;99554.59;;;13.36;59.15
79129;BME280;68529;43.286;23.360;2023-10-13T03:49:10;99559.47;;;13.24;59.39
79129;BME280;68529;43.286;23.360;2023-10-13T03:51:41;99555.25;;;13.20;59.57
79129;BME280;68529;43.286;23.360;2023-10-13T03:54:06;99561.22;;;13.25;59.33
79129;BME280;68529;43.286;23.360;2023-10-13T03:56:35;99562.19;;;13.22;59.55
79129;BME280;68529;43.286;23.360;2023-10-13T03:59:07;99560.22;;;13.27;59.24
79129;BME280;68529;43.286;23.360;2023-10-13T04:01:44;99567.63;;;13.18;59.25
79129;BME280;68529;43.286;23.360;2023-10-13T04:04:19;99567.06;;;13.10;59.35
79129;BME280;68529;43.286;23.360;2023-10-13T04:06:59;99566.06;;;13.14;59.27
79129;BME280;68529;43.286;23.360;2023-10-13T04:09:30;99580.97;;;13.15;59.12
79129;BME280;68529;43.286;23.360;2023-10-13T04:14:32;99577.78;;;13.05;59.08
79129;BME280;68529;43.286;23.360;2023-10-13T04:17:16;99586.56;;;13.06;59.17
79129;BME280;68529;43.286;23.360;2023-10-13T04:19:48;99597.94;;;13.08;59.20
79129;BME280;68529;43.286;23.360;2023-10-13T04:22:39;99598.94;;;13.04;59.26
79129;BME280;68529;43.286;23.360;2023-10-13T04:28:07;99597.22;;;13.03;59.35
79129;BME280;68529;43.286;23.360;2023-10-13T04:30:46;99600.66;;;13.05;59.69
79129;BME280;68529;43.286;23.360;2023-10-13T04:33:24;99608.56;;;13.05;59.79
79129;BME280;68529;43.286;23.360;2023-10-13T04:36:14;99609.47;;;13.04;59.76
79129;BME280;68529;43.286;23.360;2023-10-13T04:38:53;99610.34;;;13.04;59.74
79129;BME280;68529;43.286;23.360;2023-10-13T04:41:32;99606.78;;;13.05;59.69
79129;BME280;68529;43.286;23.360;2023-10-13T04:44:04;99611.19;;;13.05;59.42
79129;BME280;68529;43.286;23.360;2023-10-13T04:46:31;99615.59;;;13.04;59.45
79129;BME280;68529;43.286;23.360;2023-10-13T04:49:20;99620.03;;;13.04;59.63
79129;BME280;68529;43.286;23.360;2023-10-13T04:51:59;99624.47;;;13.03;59.64
79129;BME280;68529;43.286;23.360;2023-10-13T04:54:35;99627.94;;;13.04;59.69
79129;BME280;68529;43.286;23.360;2023-10-13T04:57:19;99634.16;;;13.03;59.42
79129;BME280;68529;43.286;23.360;2023-10-13T04:59:52;99641.31;;;12.99;59.64
79129;BME280;68529;43.286;23.360;2023-10-13T05:02:56;99642.47;;;12.92;59.67
79129;BME280;68529;43.286;23.360;2023-10-13T05:05:27;99647.63;;;12.95;59.94
79129;BME280;68529;43.286;23.360;2023-10-13T05:08:12;99650.06;;;13.00;59.81
79129;BME280;68529;43.286;23.360;2023-10-13T05:10:56;99654.06;;;13.11;59.67
79129;BME280;68529;43.286;23.360;2023-10-13T05:14:00;99659.59;;;13.27;59.16
79129;BME280;68529;43.286;23.360;2023-10-13T05:16:44;99661.81;;;13.37;59.06
79129;BME280;68529;43.286;23.360;2023-10-13T05:19:27;99669.22;;;13.51;58.99
79129;BME280;68529;43.286;23.360;2023-10-13T05:22:12;99663.94;;;13.73;58.54
79129;BME280;68529;43.286;23.360;2023-10-13T05:24:56;99666.63;;;13.93;58.20
79129;BME280;68529;43.286;23.360;2023-10-13T05:27:40;99672.16;;;14.07;57.90
79129;BME280;68529;43.286;23.360;2023-10-13T05:30:24;99674.09;;;14.24;57.91
79129;BME280;68529;43.286;23.360;2023-10-13T05:33:08;99676.66;;;14.47;56.94
79129;BME280;68529;43.286;23.360;2023-10-13T05:36:02;99674.66;;;14.72;56.34
79129;BME280;68529;43.286;23.360;2023-10-13T05:38:46;99678.19;;;14.91;56.12
79129;BME280;68529;43.286;23.360;2023-10-13T05:41:30;99680.44;;;15.00;55.90
79129;BME280;68529;43.286;23.360;2023-10-13T05:44:14;99673.75;;;15.12;55.49
79129;BME280;68529;43.286;23.360;2023-10-13T05:46:58;99681.53;;;15.34;55.31
79129;BME280;68529;43.286;23.360;2023-10-13T05:49:38;99679.63;;;15.56;54.94
79129;BME280;68529;43.286;23.360;2023-10-13T05:52:15;99674.09;;;15.79;54.52
79129;BME280;68529;43.286;23.360;2023-10-13T05:54:59;99673.50;;;16.08;54.26
79129;BME280;68529;43.286;23.360;2023-10-13T05:57:43;99682.72;;;16.36;53.63
79129;BME280;68529;43.286;23.360;2023-10-13T06:00:27;99681.31;;;16.46;53.31
79129;BME280;68529;43.286;23.360;2023-10-13T06:03:11;99682.03;;;16.66;53.25
79129;BME280;68529;43.286;23.360;2023-10-13T06:05:55;99685.81;;;16.78;52.90
79129;BME280;68529;43.286;23.360;2023-10-13T06:08:39;99677.97;;;16.76;53.45
79129;BME280;68529;43.286;23.360;2023-10-13T06:11:23;99674.78;;;17.03;53.15
79129;BME280;68529;43.286;23.360;2023-10-13T06:14:07;99661.09;;;17.26;52.85
79129;BME280;68529;43.286;23.360;2023-10-13T06:16:51;99659.59;;;17.53;52.62
79129;BME280;68529;43.286;23.360;2023-10-13T06:19:35;99662.84;;;17.74;52.24
79129;BME280;68529;43.286;23.360;2023-10-13T06:22:19;99672.06;;;17.98;51.66
79129;BME280;68529;43.286;23.360;2023-10-13T06:25:03;99665.81;;;18.29;51.44
79129;BME280;68529;43.286;23.360;2023-10-13T06:27:46;99668.00;;;18.52;51.27
79129;BME280;68529;43.286;23.360;2023-10-13T06:30:30;99664.53;;;18.80;50.60
79129;BME280;68529;43.286;23.360;2023-10-13T06:32:56;99664.06;;;19.01;50.02
79129;BME280;68529;43.286;23.360;2023-10-13T06:35:21;99664.25;;;19.27;49.62
79129;BME280;68529;43.286;23.360;2023-10-13T06:37:51;99670.91;;;19.48;49.25
79129;BME280;68529;43.286;23.360;2023-10-13T06:40:16;99660.88;;;19.65;48.93
79129;BME280;68529;43.286;23.360;2023-10-13T06:42:51;99657.75;;;19.86;48.80
79129;BME280;68529;43.286;23.360;2023-10-13T06:45:18;99663.59;;;20.05;49.01
79129;BME280;68529;43.286;23.360;2023-10-13T06:47:44;99661.63;;;20.21;48.52
79129;BME280;68529;43.286;23.360;2023-10-13T06:50:10;99657.94;;;20.36;48.56
79129;BME280;68529;43.286;23.360;2023-10-13T06:52:43;99653.59;;;20.48;48.66
79129;BME280;68529;43.286;23.360;2023-10-13T06:55:09;99652.94;;;20.44;48.57
79129;BME280;68529;43.286;23.360;2023-10-13T06:57:49;99659.38;;;20.54;48.07
79129;BME280;68529;43.286;23.360;2023-10-13T07:00:17;99655.84;;;20.54;47.38
79129;BME280;68529;43.286;23.360;2023-10-13T07:02:57;99652.53;;;20.50;47.86
79129;BME280;68529;43.286;23.360;2023-10-13T07:05:40;99656.25;;;20.60;47.71
79129;BME280;68529;43.286;23.360;2023-10-13T07:08:09;99652.34;;;20.66;47.39
79129;BME280;68529;43.286;23.360;2023-10-13T07:10:35;99659.69;;;20.75;47.74
79129;BME280;68529;43.286;23.360;2023-10-13T07:13:29;99657.22;;;20.97;47.23
79129;BME280;68529;43.286;23.360;2023-10-13T07:15:55;99654.34;;;21.00;46.56
79129;BME280;68529;43.286;23.360;2023-10-13T07:18:30;99669.22;;;21.04;46.85
79129;BME280;68529;43.286;23.360;2023-10-13T07:21:03;99665.28;;;21.10;47.24
79129;BME280;68529;43.286;23.360;2023-10-13T07:23:35;99666.25;;;21.21;46.39
79129;BME280;68529;43.286;23.360;2023-10-13T07:26:01;99661.41;;;21.26;46.10
79129;BME280;68529;43.286;23.360;2023-10-13T07:28:32;99655.63;;;21.20;46.22
79129;BME280;68529;43.286;23.360;2023-10-13T07:31:12;99669.94;;;21.31;46.33
79129;BME280;68529;43.286;23.360;2023-10-13T07:33:38;99668.94;;;21.58;46.11
79129;BME280;68529;43.286;23.360;2023-10-13T07:36:08;99664.84;;;21.65;46.39
79129;BME280;68529;43.286;23.360;2023-10-13T07:38:44;99674.16;;;21.95;45.21
79129;BME280;68529;43.286;23.360;2023-10-13T07:41:17;99670.31;;;21.99;45.09
79129;BME280;68529;43.286;23.360;2023-10-13T07:43:47;99676.19;;;21.92;44.88
79129;BME280;68529;43.286;23.360;2023-10-13T07:46:14;99669.03;;;21.92;44.97
79129;BME280;68529;43.286;23.360;2023-10-13T07:48:40;99671.50;;;21.95;45.66
79129;BME280;68529;43.286;23.360;2023-10-13T07:51:08;99672.97;;;21.99;45.87
79129;BME280;68529;43.286;23.360;2023-10-13T07:53:42;99683.59;;;22.12;46.00
79129;BME280;68529;43.286;23.360;2023-10-13T07:56:14;99685.75;;;22.31;45.92
79129;BME280;68529;43.286;23.360;2023-10-13T07:58:44;99674.47;;;22.38;44.35
79129;BME280;68529;43.286;23.360;2023-10-13T08:01:31;99679.56;;;22.65;44.17
79129;BME280;68529;43.286;23.360;2023-10-13T08:03:57;99681.13;;;23.02;44.55
79129;BME280;68529;43.286;23.360;2023-10-13T08:06:40;99674.75;;;23.37;44.56
79129;BME280;68529;43.286;23.360;2023-10-13T08:09:09;99676.22;;;23.74;42.60
79129;BME280;68529;43.286;23.360;2023-10-13T08:11:38;99671.25;;;24.01;42.44
79129;BME280;68529;43.286;23.360;2023-10-13T08:14:05;99669.63;;;24.21;40.74
79129;BME280;68529;43.286;23.360;2023-10-13T08:16:41;99668.41;;;24.46;40.54
79129;BME280;68529;43.286;23.360;2023-10-13T08:19:23;99665.50;;;24.69;40.17
79129;BME280;68529;43.286;23.360;2023-10-13T08:22:12;99656.53;;;24.80;39.98
79129;BME280;68529;43.286;23.360;2023-10-13T08:24:47;99657.38;;;25.01;41.27
79129;BME280;68529;43.286;23.360;2023-10-13T08:27:14;99655.94;;;25.27;40.33
79129;BME280;68529;43.286;23.360;2023-10-13T08:29:44;99646.44;;;25.63;39.68
79129;BME280;68529;43.286;23.360;2023-10-13T08:32:19;99647.75;;;25.78;38.48
79129;BME280;68529;43.286;23.360;2023-10-13T08:34:50;99639.66;;;25.69;37.68
79129;BME280;68529;43.286;23.360;2023-10-13T08:37:18;99635.75;;;25.82;37.91
79129;BME280;68529;43.286;23.360;2023-10-13T08:39:50;99640.56;;;25.98;38.26
79129;BME280;68529;43.286;23.360;2023-10-13T08:42:30;99631.19;;;25.83;37.49
79129;BME280;68529;43.286;23.360;2023-10-13T08:45:22;99634.84;;;25.72;37.92
79129;BME280;68529;43.286;23.360;2023-10-13T08:47:56;99634.28;;;25.59;36.13
79129;BME280;68529;43.286;23.360;2023-10-13T08:50:44;99634.22;;;25.50;36.68
79129;BME280;68529;43.286;23.360;2023-10-13T08:53:26;99629.69;;;25.50;36.28
79129;BME280;68529;43.286;23.360;2023-10-13T08:55:58;99624.78;;;25.65;34.35
79129;BME280;68529;43.286;23.360;2023-10-13T08:58:42;99629.94;;;25.87;35.38
79129;BME280;68529;43.286;23.360;2023-10-13T09:01:26;99622.88;;;26.15;33.92
79129;BME280;68529;43.286;23.360;2023-10-13T09:04:18;99610.53;;;26.31;32.00
79129;BME280;68529;43.286;23.360;2023-10-13T09:06:45;99620.03;;;26.54;32.29
79129;BME280;68529;43.286;23.360;2023-10-13T09:09:29;99620.72;;;26.56;33.06
79129;BME280;68529;43.286;23.360;2023-10-13T09:12:31;99619.84;;;26.56;31.86
79129;BME280;68529;43.286;23.360;2023-10-13T09:15:04;99618.41;;;26.81;31.33
79129;BME280;68529;43.286;23.360;2023-10-13T09:17:49;99614.06;;;27.07;31.10
79129;BME280;68529;43.286;23.360;2023-10-13T09:20:30;99626.66;;;27.53;31.30
79129;BME280;68529;43.286;23.360;2023-10-13T09:23:08;99625.81;;;27.97;30.54
79129;BME280;68529;43.286;23.360;2023-10-13T09:25:36;99632.38;;;28.30;31.05
79129;BME280;68529;43.286;23.360;2023-10-13T09:28:13;99621.81;;;28.62;30.13
79129;BME280;68529;43.286;23.360;2023-10-13T09:30:47;99628.88;;;28.55;29.24
79129;BME280;68529;43.286;23.360;2023-10-13T09:33:12;99621.88;;;28.45;29.44
79129;BME280;68529;43.286;23.360;2023-10-13T09:35:44;99616.31;;;28.64;29.26
79129;BME280;68529;43.286;23.360;2023-10-13T09:38:17;99617.03;;;28.74;29.29
79129;BME280;68529;43.286;23.360;2023-10-13T09:40:43;99608.50;;;28.86;29.83
79129;BME280;68529;43.286;23.360;2023-10-13T09:43:18;99615.22;;;29.08;28.67
79129;BME280;68529;43.286;23.360;2023-10-13T09:45:47;99615.19;;;29.00;28.27
79129;BME280;68529;43.286;23.360;2023-10-13T09:48:39;99618.16;;;28.63;28.53
79129;BME280;68529;43.286;23.360;2023-10-13T09:51:13;99617.47;;;28.26;28.27
79129;BME280;68529;43.286;23.360;2023-10-13T09:53:40;99617.72;;;28.15;28.39
79129;BME280;68529;43.286;23.360;2023-10-13T09:56:14;99616.59;;;28.43;28.59
79129;BME280;68529;43.286;23.360;2023-10-13T09:58:54;99618.56;;;28.76;27.94
79129;BME280;68529;43.286;23.360;2023-10-13T10:01:24;99612.81;;;29.23;28.30
79129;BME280;68529;43.286;23.360;2023-10-13T10:04:09;99616.47;;;29.56;27.29
79129;BME280;68529;43.286;23.360;2023-10-13T10:06:39;99615.66;;;29.71;26.49
79129;BME280;68529;43.286;23.360;2023-10-13T10:09:10;99613.84;;;29.80;26.80
79129;BME280;68529;43.286;23.360;2023-10-13T10:17:41;99605.75;;;29.96;25.94
79129;BME280;68529;43.286;23.360;2023-10-13T10:20:09;99599.75;;;29.68;26.27
79129;BME280;68529;43.286;23.360;2023-10-13T10:22:55;99607.31;;;29.57;26.61
79129;BME280;68529;43.286;23.360;2023-10-13T10:25:29;99599.72;;;29.60;25.84
79129;BME280;68529;43.286;23.360;2023-10-13T10:28:01;99602.66;;;29.75;26.75
79129;BME280;68529;43.286;23.360;2023-10-13T10:30:32;99606.59;;;29.80;27.10
79129;BME280;68529;43.286;23.360;2023-10-13T10:32:59;99608.31;;;29.97;26.64
79129;BME280;68529;43.286;23.360;2023-10-13T10:35:27;99604.94;;;30.04;26.01
79129;BME280;68529;43.286;23.360;2023-10-13T10:38:07;99598.88;;;30.42;26.24
79129;BME280;68529;43.286;23.360;2023-10-13T10:41:08;99604.47;;;30.48;26.29
79129;BME280;68529;43.286;23.360;2023-10-13T10:43:39;99594.78;;;30.46;25.59
79129;BME280;68529;43.286;23.360;2023-10-13T10:46:26;99598.53;;;30.45;25.92
79129;BME280;68529;43.286;23.360;2023-10-13T10:48:55;99595.97;;;30.27;25.70
79129;BME280;68529;43.286;23.360;2023-10-13T10:51:27;99595.63;;;30.22;26.14
79129;BME280;68529;43.286;23.360;2023-10-13T10:53:57;99595.44;;;30.16;25.13
79129;BME280;68529;43.286;23.360;2023-10-13T10:56:25;99595.28;;;30.09;25.97
79129;BME280;68529;43.286;23.360;2023-10-13T10:58:56;99584.59;;;30.24;25.94
79129;BME280;68529;43.286;23.360;2023-10-13T11:01:23;99587.16;;;30.25;25.30
79129;BME280;68529;43.286;23.360;2023-10-13T11:04:07;99589.69;;;30.35;25.46
79129;BME280;68529;43.286;23.360;2023-10-13T11:06:37;99591.41;;;30.52;25.35
79129;BME280;68529;43.286;23.360;2023-10-13T11:09:07;99591.22;;;30.70;24.82
79129;BME280;68529;43.286;23.360;2023-10-13T11:11:46;99593.59;;;30.73;25.27
79129;BME280;68529;43.286;23.360;2023-10-13T11:14:28;99579.00;;;30.66;24.99
79129;BME280;68529;43.286;23.360;2023-10-13T11:16:57;99579.38;;;30.63;25.72
79129;BME280;68529;43.286;23.360;2023-10-13T11:19:36;99579.19;;;30.56;26.09
79129;BME280;68529;43.286;23.360;2023-10-13T11:22:16;99565.66;;;30.32;25.58
79129;BME280;68529;43.286;23.360;2023-10-13T11:25:02;99567.75;;;29.56;26.26
79129;BME280;68529;43.286;23.360;2023-10-13T11:27:35;99569.94;;;29.68;26.37
79129;BME280;68529;43.286;23.360;2023-10-13T11:30:19;99558.84;;;29.87;26.73
79129;BME280;68529;43.286;23.360;2023-10-13T11:32:56;99566.63;;;29.98;27.08
79129;BME280;68529;43.286;23.360;2023-10-13T11:35:22;99559.88;;;30.11;26.73
79129;BME280;68529;43.286;23.360;2023-10-13T11:37:50;99564.28;;;30.12;26.51
79129;BME280;68529;43.286;23.360;2023-10-13T11:40:31;99566.31;;;30.10;25.95
79129;BME280;68529;43.286;23.360;2023-10-13T11:43:11;99566.47;;;30.08;26.48
79129;BME280;68529;43.286;23.360;2023-10-13T11:45:41;99563.28;;;30.21;25.56
79129;BME280;68529;43.286;23.360;2023-10-13T11:48:42;99557.50;;;30.24;26.38
79129;BME280;68529;43.286;23.360;2023-10-13T11:53:34;99559.22;;;30.09;25.95
79129;BME280;68529;43.286;23.360;2023-10-13T11:56:00;99562.59;;;29.86;26.09
79129;BME280;68529;43.286;23.360;2023-10-13T11:58:26;99561.06;;;30.00;26.05
79129;BME280;68529;43.286;23.360;2023-10-13T12:00:54;99564.63;;;29.92;26.53
79129;BME280;68529;43.286;23.360;2023-10-13T12:03:33;99553.72;;;29.76;26.83
79129;BME280;68529;43.286;23.360;2023-10-13T12:06:19;99560.78;;;29.53;27.19
79129;BME280;68529;43.286;23.360;2023-10-13T12:09:01;99559.09;;;29.52;26.66
79129;BME280;68529;43.286;23.360;2023-10-13T12:11:45;99555.50;;;29.43;27.11
79129;BME280;68529;43.286;23.360;2023-10-13T12:14:14;99560.28;;;29.50;27.45
79129;BME280;68529;43.286;23.360;2023-10-13T12:17:03;99559.06;;;29.44;26.73
79129;BME280;68529;43.286;23.360;2023-10-13T12:19:30;99555.28;;;29.29;27.13
79129;BME280;68529;43.286;23.360;2023-10-13T12:21:56;99554.78;;;29.25;27.03
79129;BME280;68529;43.286;23.360;2023-10-13T12:24:27;99546.34;;;29.28;26.76
79129;BME280;68529;43.286;23.360;2023-10-13T12:27:06;99547.88;;;29.31;26.74
79129;BME280;68529;43.286;23.360;2023-10-13T12:29:45;99546.16;;;29.30;27.44
79129;BME280;68529;43.286;23.360;2023-10-13T12:32:12;99545.31;;;29.29;27.10
79129;BME280;68529;43.286;23.360;2023-10-13T12:34:39;99541.09;;;29.27;27.16
79129;BME280;68529;43.286;23.360;2023-10-13T12:37:23;99550.31;;;29.16;27.04
79129;BME280;68529;43.286;23.360;2023-10-13T12:40:21;99550.66;;;29.13;27.20
79129;BME280;68529;43.286;23.360;2023-10-13T12:43:05;99547.63;;;29.16;27.15
79129;BME280;68529;43.286;23.360;2023-10-13T12:45:50;99544.38;;;29.13;26.78
79129;BME280;68529;43.286;23.360;2023-10-13T12:48:35;99550.94;;;29.02;27.48
79129;BME280;68529;43.286;23.360;2023-10-13T12:51:20;99547.88;;;28.97;26.47
79129;BME280;68529;43.286;23.360;2023-10-13T12:53:51;99539.88;;;28.87;26.49
79129;BME280;68529;43.286;23.360;2023-10-13T12:56:17;99539.88;;;28.87;27.33
79129;BME280;68529;43.286;23.360;2023-10-13T12:58:46;99541.25;;;28.92;27.30
79129;BME280;68529;43.286;23.360;2023-10-13T13:01:21;99532.78;;;28.86;27.00
79129;BME280;68529;43.286;23.360;2023-10-13T13:03:48;99528.53;;;28.84;26.94
79129;BME280;68529;43.286;23.360;2023-10-13T13:06:22;99532.06;;;28.84;26.94
79129;BME280;68529;43.286;23.360;2023-10-13T13:08:53;99533.56;;;28.79;27.44
79129;BME280;68529;43.286;23.360;2023-10-13T13:11:19;99537.44;;;28.76;27.38
79129;BME280;68529;43.286;23.360;2023-10-13T13:13:45;99529.03;;;28.79;27.46
79129;BME280;68529;43.286;23.360;2023-10-13T13:16:12;99535.78;;;28.75;26.52
79129;BME280;68529;43.286;23.360;2023-10-13T13:18:38;99529.97;;;28.70;27.95
79129;BME280;68529;43.286;23.360;2023-10-13T13:21:04;99520.66;;;28.65;26.63
79129;BME280;68529;43.286;23.360;2023-10-13T13:23:31;99531.63;;;28.63;26.76
79129;BME280;68529;43.286;23.360;2023-10-13T13:25:57;99532.25;;;28.57;27.50
79129;BME280;68529;43.286;23.360;2023-10-13T13:28:23;99531.56;;;28.55;27.03
79129;BME280;68529;43.286;23.360;2023-10-13T13:30:49;99538.28;;;28.51;27.57
79129;BME280;68529;43.286;23.360;2023-10-13T13:33:16;99530.66;;;28.47;27.12
79129;BME280;68529;43.286;23.360;2023-10-13T13:35:42;99529.75;;;28.38;27.46
79129;BME280;68529;43.286;23.360;2023-10-13T13:38:09;99530.69;;;28.29;27.59
79129;BME280;68529;43.286;23.360;2023-10-13T13:40:55;99535.72;;;28.24;27.34
79129;BME280;68529;43.286;23.360;2023-10-13T13:43:21;99528.63;;;28.23;27.41